AirNav   Air Wisconsin Up To $57,000 Bonus
 
 1188 users online  

1OH8 Lisbon Airfield
South Charleston, Ohio, USA

GOING TO SOUTH CHARLESTON?


FAA INFORMATION EFFECTIVE 25 MARCH 2021

Location

FAA Identifier: 1OH8
Lat/Long: 39-52-00.2160N 083-37-59.7230W
39-52.003600N 083-37.995383W
39.8667267,-83.6332564
(estimated)
Elevation: 1160 ft. / 354 m (estimated)
Variation: 04W (1985)
From city: 3 miles N of SOUTH CHARLESTON, OH
Time zone: UTC -4 (UTC -5 during Standard Time)
Zip code: 45368

Airport Operations

Airport use: Private use. Permission required prior to landing
Activation date: 07/1967
Control tower: no
ARTCC: INDIANAPOLIS CENTER
FSS: DAYTON FLIGHT SERVICE STATION
LOCAL CALL 937-462-8826 FOR MRS. MINNICK OR 937-462-8275 FOR CHARLES R. KIMBALL.
Attendance: CONTINUOUS
Segmented circle: no

Airport Communications

WX AWOS-3PT at UYF (9 nm NE): 120.85 (740-852-2844)
WX AWOS-3PT at SGH (10 nm W): 134.975 (937-324-4532)
WX AWOS-3 at I74 (17 nm N): 118.325 (937-484-5863)
WX AWOS-3 at I19 (20 nm SW): 118.525 (937-372-4668)

Nearby radio navigation aids

VOR radial/distance  VOR name  Freq  Var
MXQr020/27.3MIDWEST VOR/DME112.9004W
RODr148/31.5ROSEWOOD VORTAC117.5005W
DQNr105/36.3DAYTON VOR/DME114.5001W
XUBr309/(36.5)YELLOW BUD VOR112.5005W

 
NDB name  Hdg/Dist  Freq  Var  ID
CLARK COUNTY098/6.834104WCCJ -.-. -.-. .---
COURT HOUSE331/19.541406WCSS -.-. ... ...

Airport Services

Airframe service: NONE
Powerplant service: NONE

Runway Information

Runway 5/23

Dimensions: 1800 x 75 ft. / 549 x 23 m
Surface: turf
RUNWAY 5  RUNWAY 23
Traffic pattern: leftleft

Airport Ownership and Management from official FAA records

Ownership: Privately-owned
Owner: MRS. NOLA MINNICK
3241 S URBANA LISBON RD
SOUTH CARLESTON, OH 45368
Phone 937-462-8826
Manager: CHARLES KIMBALL
3395 LISBON/URBANA RD
SOUTH CHARLESTON, OH 45368
Phone 937-462-8275
EASEMENT HOLDER

Airport Operational Statistics

Aircraft based on the field: 3
Single engine airplanes: 3
    

Additional Remarks

A52-23 POLE ON LEFT SIDE RWY 23.
A52-5 BARN ADJ TO RGT OF RWY 05.
FOR CD CTC COLUMBUS APCH AT 614-338-8537

Instrument Procedures

There are no published instrument procedures at 1OH8.

Some nearby airports with instrument procedures:

KUYF - Madison County Airport (9 nm NE)
KSGH - Springfield-Beckley Municipal Airport (10 nm W)
I74 - Grimes Field Airport (17 nm N)
KFFO - Wright-Patterson Air Force Base (19 nm W)
I19 - Greene County-Lewis A Jackson Regional Airport (20 nm SW)
 
Loc | Ops | Rwys | IFR | FBO | Links
Com | Nav | Svcs | Stats | Notes
Area around 1OH8 (Lisbon Airfield)
 
Road maps at: MapQuest Bing Google
 
Aerial photo
No photo
 
Sectional chart

 
Airport distance calculator
Flying to Lisbon Airfield? Find the distance to fly.

From to 1OH8

Sunrise and sunset
Times for 12-Apr-2021
 Local
(UTC-4)
 Zulu
(UTC)
Morning civil twilight06:3510:35
Sunrise07:0211:02
Sunset20:0800:08
Evening civil twilight20:3600:36

Current date and time
Zulu (UTC)  12-Apr-2021 23:24:29
Local (UTC-4)  12-Apr-2021 19:24:29
 
METAR
KUYF 
9nm NE 
122255Z AUTO 28006KT 10SM CLR 13/09 A2987 RMK AO2
KSGH 
9nm W 
122256Z AUTO 00000KT 10SM BKN055 14/12 A2988 RMK AO2 SLP120 T01390117 PNO $
KI74 
17nm N 
122255Z AUTO 28007KT 10SM SCT065 15/10 A2987 RMK AO2
KFFO 
19nm W 
122256Z AUTO 30008KT 10SM CLR 16/07 A2987 RMK AO2 SLP118 T01630067
TAF
KFFO 
19nm W 
121906Z 1219/1401 29009KT 9000 BR VCSH BKN020 OVC030 QNH2973INS TEMPO 1219/1221 29010G15KT 4800 -SHRA BR SCT007 BKN015 BECMG 1223/1224 29009KT 9999 NSW SCT030 BKN050 QNH2982INS BECMG 1307/1308 VRB06KT 6000 BR FEW090 SCT250 QNH2999INS BECMG 1317/1318 26009KT 9999 NSW FEW100 SCT250 QNH3006INS TX17/1319Z TN06/1311Z
NOTAMs
Click for the latest NOTAMs
NOTAMs are issued by the DoD/FAA and will open in a separate window not controlled by AirNav.

 

 
 

Would you like to see your business listed on this page?

 If your business provides an interesting product or service to pilots, flight crews, aircraft, or users of the Lisbon Airfield, you should consider listing it here.  To start the listing process, click on the button below
 
Add a business
 

Other Pages about Lisbon Airfield

Update a link
 
Copyright © AirNav, LLC. All rights reserved. Privacy Policy  Contact